sensor_id;sensor_type;location;lat;lon;timestamp;temperature;humidity
69747;DHT22;57018;50.278;19.134;2023-02-01T00:02:22;3.10;99.90
69747;DHT22;57018;50.278;19.134;2023-02-01T00:04:52;2.80;99.90
69747;DHT22;57018;50.278;19.134;2023-02-01T00:07:21;2.70;99.90
69747;DHT22;57018;50.278;19.134;2023-02-01T00:09:51;2.70;99.90
69747;DHT22;57018;50.278;19.134;2023-02-01T00:12:21;2.50;99.90
69747;DHT22;57018;50.278;19.134;2023-02-01T00:14:50;2.40;99.90
69747;DHT22;57018;50.278;19.134;2023-02-01T00:17:20;2.10;99.90
69747;DHT22;57018;50.278;19.134;2023-02-01T00:19:50;2.00;99.90
69747;DHT22;57018;50.278;19.134;2023-02-01T00:22:19;1.90;99.90
69747;DHT22;57018;50.278;19.134;2023-02-01T00:24:49;1.80;99.90
69747;DHT22;57018;50.278;19.134;2023-02-01T00:27:18;1.80;99.90
69747;DHT22;57018;50.278;19.134;2023-02-01T00:29:49;1.90;99.90
69747;DHT22;57018;50.278;19.134;2023-02-01T00:32:19;2.00;99.90
69747;DHT22;57018;50.278;19.134;2023-02-01T00:34:48;2.00;99.90
69747;DHT22;57018;50.278;19.134;2023-02-01T00:37:18;2.00;99.90
69747;DHT22;57018;50.278;19.134;2023-02-01T00:39:48;2.00;99.90
69747;DHT22;57018;50.278;19.134;2023-02-01T00:42:18;2.30;99.90
69747;DHT22;57018;50.278;19.134;2023-02-01T00:44:48;2.40;99.90
69747;DHT22;57018;50.278;19.134;2023-02-01T00:47:18;2.50;99.90
69747;DHT22;57018;50.278;19.134;2023-02-01T00:49:48;2.80;99.90
69747;DHT22;57018;50.278;19.134;2023-02-01T00:52:18;2.80;99.90
69747;DHT22;57018;50.278;19.134;2023-02-01T00:54:48;3.00;99.90
69747;DHT22;57018;50.278;19.134;2023-02-01T00:57:18;3.10;99.90
69747;DHT22;57018;50.278;19.134;2023-02-01T00:59:48;3.30;99.90
69747;DHT22;57018;50.278;19.134;2023-02-01T01:02:17;3.60;99.90
69747;DHT22;57018;50.278;19.134;2023-02-01T01:04:47;3.60;99.90
69747;DHT22;57018;50.278;19.134;2023-02-01T01:07:17;3.40;99.90
69747;DHT22;57018;50.278;19.134;2023-02-01T01:09:47;3.20;99.90
69747;DHT22;57018;50.278;19.134;2023-02-01T01:12:17;2.80;99.90
69747;DHT22;57018;50.278;19.134;2023-02-01T01:14:48;2.70;99.90
69747;DHT22;57018;50.278;19.134;2023-02-01T01:17:18;2.60;99.90
69747;DHT22;57018;50.278;19.134;2023-02-01T01:19:47;2.50;99.90
69747;DHT22;57018;50.278;19.134;2023-02-01T01:22:17;2.40;99.90
69747;DHT22;57018;50.278;19.134;2023-02-01T01:24:47;2.40;99.90
69747;DHT22;57018;50.278;19.134;2023-02-01T01:27:17;2.50;99.90
69747;DHT22;57018;50.278;19.134;2023-02-01T01:29:51;2.40;99.90
69747;DHT22;57018;50.278;19.134;2023-02-01T01:32:21;2.20;99.90
69747;DHT22;57018;50.278;19.134;2023-02-01T01:34:51;2.20;99.90
69747;DHT22;57018;50.278;19.134;2023-02-01T01:37:21;2.10;99.90
69747;DHT22;57018;50.278;19.134;2023-02-01T01:39:50;2.20;99.90
69747;DHT22;57018;50.278;19.134;2023-02-01T01:42:20;2.00;99.90
69747;DHT22;57018;50.278;19.134;2023-02-01T01:45:00;2.10;99.90
69747;DHT22;57018;50.278;19.134;2023-02-01T01:47:35;2.10;99.90
69747;DHT22;57018;50.278;19.134;2023-02-01T01:50:11;2.00;99.90
69747;DHT22;57018;50.278;19.134;2023-02-01T01:52:43;2.10;99.90
69747;DHT22;57018;50.278;19.134;2023-02-01T01:55:17;2.20;99.90
69747;DHT22;57018;50.278;19.134;2023-02-01T01:57:53;2.40;99.90
69747;DHT22;57018;50.278;19.134;2023-02-01T02:00:26;2.00;99.90
69747;DHT22;57018;50.278;19.134;2023-02-01T02:02:58;2.20;99.90
69747;DHT22;57018;50.278;19.134;2023-02-01T02:05:28;2.20;99.90
69747;DHT22;57018;50.278;19.134;2023-02-01T02:08:00;2.20;99.90
69747;DHT22;57018;50.278;19.134;2023-02-01T02:10:30;2.10;99.90
69747;DHT22;57018;50.278;19.134;2023-02-01T02:13:14;2.20;99.90
69747;DHT22;57018;50.278;19.134;2023-02-01T02:15:52;2.10;99.90
69747;DHT22;57018;50.278;19.134;2023-02-01T02:18:30;2.30;99.90
69747;DHT22;57018;50.278;19.134;2023-02-01T02:21:30;2.20;99.90
69747;DHT22;57018;50.278;19.134;2023-02-01T02:24:42;2.30;99.90
69747;DHT22;57018;50.278;19.134;2023-02-01T02:27:23;2.10;99.90
69747;DHT22;57018;50.278;19.134;2023-02-01T02:30:30;2.00;99.90
69747;DHT22;57018;50.278;19.134;2023-02-01T02:33:38;2.20;99.90
69747;DHT22;57018;50.278;19.134;2023-02-01T02:36:18;2.10;99.90
69747;DHT22;57018;50.278;19.134;2023-02-01T02:38:55;2.00;99.90
69747;DHT22;57018;50.278;19.134;2023-02-01T02:41:33;2.00;99.90
69747;DHT22;57018;50.278;19.134;2023-02-01T02:44:31;2.10;99.90
69747;DHT22;57018;50.278;19.134;2023-02-01T02:47:24;2.00;99.90
69747;DHT22;57018;50.278;19.134;2023-02-01T02:50:02;2.10;99.90
69747;DHT22;57018;50.278;19.134;2023-02-01T02:52:54;2.00;99.90
69747;DHT22;57018;50.278;19.134;2023-02-01T02:55:44;2.10;99.90
69747;DHT22;57018;50.278;19.134;2023-02-01T02:58:16;2.00;99.90
69747;DHT22;57018;50.278;19.134;2023-02-01T03:01:04;2.10;99.90
69747;DHT22;57018;50.278;19.134;2023-02-01T03:03:52;1.90;99.90
69747;DHT22;57018;50.278;19.134;2023-02-01T03:06:37;2.10;99.90
69747;DHT22;57018;50.278;19.134;2023-02-01T03:09:13;2.30;99.90
69747;DHT22;57018;50.278;19.134;2023-02-01T03:11:46;2.30;99.90
69747;DHT22;57018;50.278;19.134;2023-02-01T03:14:37;2.10;99.90
69747;DHT22;57018;50.278;19.134;2023-02-01T03:17:13;2.10;99.90
69747;DHT22;57018;50.278;19.134;2023-02-01T03:19:46;2.30;99.90
69747;DHT22;57018;50.278;19.134;2023-02-01T03:22:21;2.30;99.90
69747;DHT22;57018;50.278;19.134;2023-02-01T03:24:55;2.50;99.90
69747;DHT22;57018;50.278;19.134;2023-02-01T03:27:29;2.40;99.90
69747;DHT22;57018;50.278;19.134;2023-02-01T03:30:04;2.70;99.90
69747;DHT22;57018;50.278;19.134;2023-02-01T03:32:37;2.40;99.90
69747;DHT22;57018;50.278;19.134;2023-02-01T03:35:26;2.50;99.90
69747;DHT22;57018;50.278;19.134;2023-02-01T03:38:01;2.40;99.90
69747;DHT22;57018;50.278;19.134;2023-02-01T03:40:35;2.60;99.90
69747;DHT22;57018;50.278;19.134;2023-02-01T03:43:08;2.50;99.90
69747;DHT22;57018;50.278;19.134;2023-02-01T03:45:45;2.70;99.90
69747;DHT22;57018;50.278;19.134;2023-02-01T03:48:17;2.60;99.90
69747;DHT22;57018;50.278;19.134;2023-02-01T03:50:52;2.50;99.90
69747;DHT22;57018;50.278;19.134;2023-02-01T03:53:25;2.10;99.90
69747;DHT22;57018;50.278;19.134;2023-02-01T03:55:55;2.30;99.90
69747;DHT22;57018;50.278;19.134;2023-02-01T03:58:26;2.00;99.90
69747;DHT22;57018;50.278;19.134;2023-02-01T04:00:58;2.10;99.90
69747;DHT22;57018;50.278;19.134;2023-02-01T04:03:29;1.70;99.90
69747;DHT22;57018;50.278;19.134;2023-02-01T04:06:00;1.80;99.90
69747;DHT22;57018;50.278;19.134;2023-02-01T04:08:30;1.60;99.90
69747;DHT22;57018;50.278;19.134;2023-02-01T04:11:00;1.60;99.90
69747;DHT22;57018;50.278;19.134;2023-02-01T04:13:29;1.70;99.90
69747;DHT22;57018;50.278;19.134;2023-02-01T04:15:59;1.60;99.90
69747;DHT22;57018;50.278;19.134;2023-02-01T04:18:29;1.60;99.90
69747;DHT22;57018;50.278;19.134;2023-02-01T04:20:59;1.50;99.90
69747;DHT22;57018;50.278;19.134;2023-02-01T04:23:29;1.40;99.90
69747;DHT22;57018;50.278;19.134;2023-02-01T04:26:02;1.40;99.90
69747;DHT22;57018;50.278;19.134;2023-02-01T04:28:32;1.40;99.90
69747;DHT22;57018;50.278;19.134;2023-02-01T04:31:02;1.40;99.90
69747;DHT22;57018;50.278;19.134;2023-02-01T04:33:32;1.60;99.90
69747;DHT22;57018;50.278;19.134;2023-02-01T04:36:02;1.60;99.90
69747;DHT22;57018;50.278;19.134;2023-02-01T04:38:32;1.70;99.90
69747;DHT22;57018;50.278;19.134;2023-02-01T04:41:01;1.60;99.90
69747;DHT22;57018;50.278;19.134;2023-02-01T04:43:31;1.50;99.90
69747;DHT22;57018;50.278;19.134;2023-02-01T04:46:01;1.60;99.90
69747;DHT22;57018;50.278;19.134;2023-02-01T04:48:31;1.80;99.90
69747;DHT22;57018;50.278;19.134;2023-02-01T04:51:01;2.00;99.90
69747;DHT22;57018;50.278;19.134;2023-02-01T04:53:31;2.00;99.90
69747;DHT22;57018;50.278;19.134;2023-02-01T04:56:01;2.20;99.90
69747;DHT22;57018;50.278;19.134;2023-02-01T04:58:30;2.30;99.90
69747;DHT22;57018;50.278;19.134;2023-02-01T05:01:03;2.20;99.90
69747;DHT22;57018;50.278;19.134;2023-02-01T05:03:34;2.30;99.90
69747;DHT22;57018;50.278;19.134;2023-02-01T05:06:04;2.20;99.90
69747;DHT22;57018;50.278;19.134;2023-02-01T05:08:34;2.10;99.90
69747;DHT22;57018;50.278;19.134;2023-02-01T05:11:05;2.30;99.90
69747;DHT22;57018;50.278;19.134;2023-02-01T05:13:34;2.20;99.90
69747;DHT22;57018;50.278;19.134;2023-02-01T05:16:19;2.00;99.90
69747;DHT22;57018;50.278;19.134;2023-02-01T05:18:49;2.00;99.90
69747;DHT22;57018;50.278;19.134;2023-02-01T05:21:19;1.90;99.90
69747;DHT22;57018;50.278;19.134;2023-02-01T05:23:49;1.90;99.90
69747;DHT22;57018;50.278;19.134;2023-02-01T05:26:37;1.90;99.90
69747;DHT22;57018;50.278;19.134;2023-02-01T05:29:08;1.90;99.90
69747;DHT22;57018;50.278;19.134;2023-02-01T05:31:38;1.70;99.90
69747;DHT22;57018;50.278;19.134;2023-02-01T05:34:08;1.50;99.90
69747;DHT22;57018;50.278;19.134;2023-02-01T05:36:38;1.40;99.90
69747;DHT22;57018;50.278;19.134;2023-02-01T05:39:08;1.50;99.90
69747;DHT22;57018;50.278;19.134;2023-02-01T05:41:38;1.40;99.90
69747;DHT22;57018;50.278;19.134;2023-02-01T05:44:09;1.50;99.90
69747;DHT22;57018;50.278;19.134;2023-02-01T05:46:39;1.40;99.90
69747;DHT22;57018;50.278;19.134;2023-02-01T05:49:09;1.50;99.90
69747;DHT22;57018;50.278;19.134;2023-02-01T05:51:39;1.40;99.90
69747;DHT22;57018;50.278;19.134;2023-02-01T05:54:09;1.40;99.90
69747;DHT22;57018;50.278;19.134;2023-02-01T05:56:39;1.60;99.90
69747;DHT22;57018;50.278;19.134;2023-02-01T05:59:10;1.70;99.90
69747;DHT22;57018;50.278;19.134;2023-02-01T06:01:40;1.90;99.90
69747;DHT22;57018;50.278;19.134;2023-02-01T06:04:10;1.90;99.90
69747;DHT22;57018;50.278;19.134;2023-02-01T06:06:40;1.60;99.90
69747;DHT22;57018;50.278;19.134;2023-02-01T06:09:09;1.60;99.90
69747;DHT22;57018;50.278;19.134;2023-02-01T06:11:40;1.60;99.90
69747;DHT22;57018;50.278;19.134;2023-02-01T06:14:10;1.60;99.90
69747;DHT22;57018;50.278;19.134;2023-02-01T06:16:40;1.70;99.90
69747;DHT22;57018;50.278;19.134;2023-02-01T06:19:10;1.50;99.90
69747;DHT22;57018;50.278;19.134;2023-02-01T06:21:40;1.50;99.90
69747;DHT22;57018;50.278;19.134;2023-02-01T06:24:10;1.60;99.90
69747;DHT22;57018;50.278;19.134;2023-02-01T06:26:40;1.70;99.90
69747;DHT22;57018;50.278;19.134;2023-02-01T06:29:11;1.80;99.90
69747;DHT22;57018;50.278;19.134;2023-02-01T06:31:41;2.00;99.90
69747;DHT22;57018;50.278;19.134;2023-02-01T06:34:12;2.10;99.90
69747;DHT22;57018;50.278;19.134;2023-02-01T06:36:42;2.30;99.90
69747;DHT22;57018;50.278;19.134;2023-02-01T06:39:11;2.40;99.90
69747;DHT22;57018;50.278;19.134;2023-02-01T06:41:44;2.40;99.90
69747;DHT22;57018;50.278;19.134;2023-02-01T06:44:15;2.60;99.90
69747;DHT22;57018;50.278;19.134;2023-02-01T06:46:45;2.70;99.90
69747;DHT22;57018;50.278;19.134;2023-02-01T06:49:15;2.60;99.90
69747;DHT22;57018;50.278;19.134;2023-02-01T06:51:44;2.60;99.90
69747;DHT22;57018;50.278;19.134;2023-02-01T06:54:15;2.70;99.90
69747;DHT22;57018;50.278;19.134;2023-02-01T06:56:45;2.80;99.90
69747;DHT22;57018;50.278;19.134;2023-02-01T06:59:14;2.80;99.90
69747;DHT22;57018;50.278;19.134;2023-02-01T07:01:44;3.00;99.90
69747;DHT22;57018;50.278;19.134;2023-02-01T07:04:14;3.20;99.90
69747;DHT22;57018;50.278;19.134;2023-02-01T07:06:44;2.90;99.90
69747;DHT22;57018;50.278;19.134;2023-02-01T07:09:14;3.20;99.90
69747;DHT22;57018;50.278;19.134;2023-02-01T07:11:44;3.30;99.90
69747;DHT22;57018;50.278;19.134;2023-02-01T07:14:14;3.20;99.90
69747;DHT22;57018;50.278;19.134;2023-02-01T07:16:44;3.40;99.90
69747;DHT22;57018;50.278;19.134;2023-02-01T07:19:14;3.40;99.70
69747;DHT22;57018;50.278;19.134;2023-02-01T07:21:47;3.40;99.90
69747;DHT22;57018;50.278;19.134;2023-02-01T07:24:18;3.40;99.90
69747;DHT22;57018;50.278;19.134;2023-02-01T07:26:48;3.60;98.60
69747;DHT22;57018;50.278;19.134;2023-02-01T07:29:19;3.50;98.50
69747;DHT22;57018;50.278;19.134;2023-02-01T07:31:49;3.60;98.70
69747;DHT22;57018;50.278;19.134;2023-02-01T07:34:19;3.60;97.40
69747;DHT22;57018;50.278;19.134;2023-02-01T07:36:49;3.70;97.60
69747;DHT22;57018;50.278;19.134;2023-02-01T07:39:20;3.60;95.70
69747;DHT22;57018;50.278;19.134;2023-02-01T07:41:50;3.60;96.80
69747;DHT22;57018;50.278;19.134;2023-02-01T07:44:20;3.70;95.70
69747;DHT22;57018;50.278;19.134;2023-02-01T07:46:51;3.80;95.20
69747;DHT22;57018;50.278;19.134;2023-02-01T07:49:21;3.70;94.90
69747;DHT22;57018;50.278;19.134;2023-02-01T07:51:51;4.00;95.00
69747;DHT22;57018;50.278;19.134;2023-02-01T07:54:21;3.70;95.50
69747;DHT22;57018;50.278;19.134;2023-02-01T07:56:57;4.10;95.10
69747;DHT22;57018;50.278;19.134;2023-02-01T07:59:36;4.20;95.40
69747;DHT22;57018;50.278;19.134;2023-02-01T08:02:28;4.10;95.40
69747;DHT22;57018;50.278;19.134;2023-02-01T08:04:58;4.30;94.50
69747;DHT22;57018;50.278;19.134;2023-02-01T08:07:29;4.30;94.10
69747;DHT22;57018;50.278;19.134;2023-02-01T08:10:03;4.50;94.70
69747;DHT22;57018;50.278;19.134;2023-02-01T08:12:35;4.50;93.50
69747;DHT22;57018;50.278;19.134;2023-02-01T08:15:10;4.70;91.40
69747;DHT22;57018;50.278;19.134;2023-02-01T08:17:50;4.70;89.90
69747;DHT22;57018;50.278;19.134;2023-02-01T08:20:21;4.90;90.00
69747;DHT22;57018;50.278;19.134;2023-02-01T08:22:52;4.70;88.80
69747;DHT22;57018;50.278;19.134;2023-02-01T08:25:25;4.80;89.10
69747;DHT22;57018;50.278;19.134;2023-02-01T08:27:56;4.90;89.00
69747;DHT22;57018;50.278;19.134;2023-02-01T08:30:26;4.80;89.70
69747;DHT22;57018;50.278;19.134;2023-02-01T08:32:57;5.10;88.90
69747;DHT22;57018;50.278;19.134;2023-02-01T08:35:28;4.90;88.80
69747;DHT22;57018;50.278;19.134;2023-02-01T08:37:57;5.10;88.90
69747;DHT22;57018;50.278;19.134;2023-02-01T08:40:28;5.00;89.10
69747;DHT22;57018;50.278;19.134;2023-02-01T08:42:58;4.90;88.30
69747;DHT22;57018;50.278;19.134;2023-02-01T08:45:30;5.20;88.40
69747;DHT22;57018;50.278;19.134;2023-02-01T08:48:03;5.20;88.70
69747;DHT22;57018;50.278;19.134;2023-02-01T08:50:41;5.40;88.10
69747;DHT22;57018;50.278;19.134;2023-02-01T08:53:13;5.40;86.70
69747;DHT22;57018;50.278;19.134;2023-02-01T08:55:43;5.50;85.40
69747;DHT22;57018;50.278;19.134;2023-02-01T08:58:15;5.50;85.50
69747;DHT22;57018;50.278;19.134;2023-02-01T09:00:46;5.60;84.30
69747;DHT22;57018;50.278;19.134;2023-02-01T09:03:20;5.70;84.50
69747;DHT22;57018;50.278;19.134;2023-02-01T09:05:51;5.70;85.00
69747;DHT22;57018;50.278;19.134;2023-02-01T09:08:24;5.80;84.30
69747;DHT22;57018;50.278;19.134;2023-02-01T09:10:57;5.90;83.60
69747;DHT22;57018;50.278;19.134;2023-02-01T09:13:31;6.20;82.70
69747;DHT22;57018;50.278;19.134;2023-02-01T09:16:03;6.00;81.70
69747;DHT22;57018;50.278;19.134;2023-02-01T09:18:36;6.40;81.50
69747;DHT22;57018;50.278;19.134;2023-02-01T09:21:07;6.30;81.60
69747;DHT22;57018;50.278;19.134;2023-02-01T09:23:37;6.30;81.50
69747;DHT22;57018;50.278;19.134;2023-02-01T09:26:11;6.40;81.80
69747;DHT22;57018;50.278;19.134;2023-02-01T09:28:42;6.50;81.50
69747;DHT22;57018;50.278;19.134;2023-02-01T09:31:13;6.60;81.10
69747;DHT22;57018;50.278;19.134;2023-02-01T09:33:43;6.70;80.40
69747;DHT22;57018;50.278;19.134;2023-02-01T09:36:14;6.80;80.50
69747;DHT22;57018;50.278;19.134;2023-02-01T09:38:49;6.70;80.30
69747;DHT22;57018;50.278;19.134;2023-02-01T09:41:29;6.70;79.90
69747;DHT22;57018;50.278;19.134;2023-02-01T09:44:09;6.80;80.40
69747;DHT22;57018;50.278;19.134;2023-02-01T09:46:42;6.90;80.20
69747;DHT22;57018;50.278;19.134;2023-02-01T09:49:19;6.80;80.00
69747;DHT22;57018;50.278;19.134;2023-02-01T09:51:54;7.00;79.90
69747;DHT22;57018;50.278;19.134;2023-02-01T09:54:33;6.90;79.50
69747;DHT22;57018;50.278;19.134;2023-02-01T09:57:16;7.10;79.80
69747;DHT22;57018;50.278;19.134;2023-02-01T09:59:49;7.20;79.60
69747;DHT22;57018;50.278;19.134;2023-02-01T10:02:25;7.10;79.40
69747;DHT22;57018;50.278;19.134;2023-02-01T10:04:59;7.30;79.80
69747;DHT22;57018;50.278;19.134;2023-02-01T10:07:35;7.20;78.90
69747;DHT22;57018;50.278;19.134;2023-02-01T10:10:13;7.30;78.60
69747;DHT22;57018;50.278;19.134;2023-02-01T10:13:06;7.60;78.60
69747;DHT22;57018;50.278;19.134;2023-02-01T10:15:45;7.80;77.80
69747;DHT22;57018;50.278;19.134;2023-02-01T10:18:42;7.80;77.90
69747;DHT22;57018;50.278;19.134;2023-02-01T10:21:24;8.00;77.60
69747;DHT22;57018;50.278;19.134;2023-02-01T10:24:16;8.30;77.30
69747;DHT22;57018;50.278;19.134;2023-02-01T10:26:53;8.20;77.00
69747;DHT22;57018;50.278;19.134;2023-02-01T10:29:30;8.10;77.70
69747;DHT22;57018;50.278;19.134;2023-02-01T10:32:02;8.10;78.00
69747;DHT22;57018;50.278;19.134;2023-02-01T10:34:37;8.00;77.20
69747;DHT22;57018;50.278;19.134;2023-02-01T10:37:20;8.00;77.70
69747;DHT22;57018;50.278;19.134;2023-02-01T10:39:54;8.10;77.10
69747;DHT22;57018;50.278;19.134;2023-02-01T10:42:27;8.00;76.70
69747;DHT22;57018;50.278;19.134;2023-02-01T10:45:02;7.80;77.00
69747;DHT22;57018;50.278;19.134;2023-02-01T10:47:34;7.80;76.60
69747;DHT22;57018;50.278;19.134;2023-02-01T10:50:15;8.10;76.40
69747;DHT22;57018;50.278;19.134;2023-02-01T10:52:50;7.90;76.90
69747;DHT22;57018;50.278;19.134;2023-02-01T10:55:34;7.90;75.10
69747;DHT22;57018;50.278;19.134;2023-02-01T10:58:10;7.90;75.90
69747;DHT22;57018;50.278;19.134;2023-02-01T11:00:48;8.10;77.40
69747;DHT22;57018;50.278;19.134;2023-02-01T11:03:30;8.50;78.70
69747;DHT22;57018;50.278;19.134;2023-02-01T11:06:02;8.40;77.50
69747;DHT22;57018;50.278;19.134;2023-02-01T11:08:34;8.40;77.50
69747;DHT22;57018;50.278;19.134;2023-02-01T11:11:12;7.80;78.60
69747;DHT22;57018;50.278;19.134;2023-02-01T11:13:42;7.50;80.00
69747;DHT22;57018;50.278;19.134;2023-02-01T11:16:15;7.50;81.40
69747;DHT22;57018;50.278;19.134;2023-02-01T11:18:44;7.10;82.40
69747;DHT22;57018;50.278;19.134;2023-02-01T11:21:15;6.90;83.80
69747;DHT22;57018;50.278;19.134;2023-02-01T11:23:46;6.80;85.10
69747;DHT22;57018;50.278;19.134;2023-02-01T11:26:22;6.90;86.00
69747;DHT22;57018;50.278;19.134;2023-02-01T11:29:01;6.60;87.10
69747;DHT22;57018;50.278;19.134;2023-02-01T11:31:30;6.60;87.20
69747;DHT22;57018;50.278;19.134;2023-02-01T11:34:07;6.50;87.80
69747;DHT22;57018;50.278;19.134;2023-02-01T11:36:38;6.40;89.20
69747;DHT22;57018;50.278;19.134;2023-02-01T11:39:26;6.90;89.30
69747;DHT22;57018;50.278;19.134;2023-02-01T11:42:01;7.00;88.20
69747;DHT22;57018;50.278;19.134;2023-02-01T11:44:35;7.30;86.50
69747;DHT22;57018;50.278;19.134;2023-02-01T11:47:24;7.50;86.80
69747;DHT22;57018;50.278;19.134;2023-02-01T11:49:57;7.60;86.10
69747;DHT22;57018;50.278;19.134;2023-02-01T11:52:47;7.70;84.50
69747;DHT22;57018;50.278;19.134;2023-02-01T11:55:34;8.10;84.50
69747;DHT22;57018;50.278;19.134;2023-02-01T11:58:30;7.90;83.40
69747;DHT22;57018;50.278;19.134;2023-02-01T12:01:20;8.30;83.40
69747;DHT22;57018;50.278;19.134;2023-02-01T12:06:55;8.20;82.10
69747;DHT22;57018;50.278;19.134;2023-02-01T12:09:43;8.30;82.10
69747;DHT22;57018;50.278;19.134;2023-02-01T12:12:22;8.00;82.90
69747;DHT22;57018;50.278;19.134;2023-02-01T12:15:08;8.00;82.70
69747;DHT22;57018;50.278;19.134;2023-02-01T12:18:11;8.00;82.80
69747;DHT22;57018;50.278;19.134;2023-02-01T12:20:58;8.00;82.80
69747;DHT22;57018;50.278;19.134;2023-02-01T12:23:39;8.20;82.90
69747;DHT22;57018;50.278;19.134;2023-02-01T12:26:30;8.40;82.30
69747;DHT22;57018;50.278;19.134;2023-02-01T12:29:15;8.50;82.30
69747;DHT22;57018;50.278;19.134;2023-02-01T12:32:11;8.50;81.80
69747;DHT22;57018;50.278;19.134;2023-02-01T12:35:09;8.40;81.30
69747;DHT22;57018;50.278;19.134;2023-02-01T12:37:56;8.10;81.30
69747;DHT22;57018;50.278;19.134;2023-02-01T12:40:52;8.00;81.90
69747;DHT22;57018;50.278;19.134;2023-02-01T12:43:32;7.80;82.20
69747;DHT22;57018;50.278;19.134;2023-02-01T12:46:12;7.50;83.00
69747;DHT22;57018;50.278;19.134;2023-02-01T12:48:52;7.20;83.60
69747;DHT22;57018;50.278;19.134;2023-02-01T12:51:26;6.90;85.00
69747;DHT22;57018;50.278;19.134;2023-02-01T12:54:02;6.70;86.40
69747;DHT22;57018;50.278;19.134;2023-02-01T12:56:38;6.80;86.80
69747;DHT22;57018;50.278;19.134;2023-02-01T12:59:19;6.50;88.40
69747;DHT22;57018;50.278;19.134;2023-02-01T13:01:56;6.40;88.50
69747;DHT22;57018;50.278;19.134;2023-02-01T13:04:32;6.10;89.80
69747;DHT22;57018;50.278;19.134;2023-02-01T13:07:08;6.10;90.50
69747;DHT22;57018;50.278;19.134;2023-02-01T13:09:45;6.20;90.70
69747;DHT22;57018;50.278;19.134;2023-02-01T13:12:19;6.50;89.60
69747;DHT22;57018;50.278;19.134;2023-02-01T13:14:55;6.30;89.20
69747;DHT22;57018;50.278;19.134;2023-02-01T13:17:29;6.40;89.40
69747;DHT22;57018;50.278;19.134;2023-02-01T13:20:05;6.10;89.60
69747;DHT22;57018;50.278;19.134;2023-02-01T13:22:38;6.40;89.50
69747;DHT22;57018;50.278;19.134;2023-02-01T13:25:26;6.30;90.20
69747;DHT22;57018;50.278;19.134;2023-02-01T13:28:00;6.30;89.70
69747;DHT22;57018;50.278;19.134;2023-02-01T13:30:38;6.50;90.10
69747;DHT22;57018;50.278;19.134;2023-02-01T13:33:28;6.60;89.80
69747;DHT22;57018;50.278;19.134;2023-02-01T13:36:20;6.70;89.40
69747;DHT22;57018;50.278;19.134;2023-02-01T13:39:23;6.60;90.00
69747;DHT22;57018;50.278;19.134;2023-02-01T13:41:59;6.60;90.00
69747;DHT22;57018;50.278;19.134;2023-02-01T13:44:34;6.50;89.60
69747;DHT22;57018;50.278;19.134;2023-02-01T13:47:16;6.50;90.40
69747;DHT22;57018;50.278;19.134;2023-02-01T13:49:48;6.00;92.00
69747;DHT22;57018;50.278;19.134;2023-02-01T13:52:29;6.20;91.80
69747;DHT22;57018;50.278;19.134;2023-02-01T13:55:24;6.30;92.20
69747;DHT22;57018;50.278;19.134;2023-02-01T13:58:03;6.10;92.10
69747;DHT22;57018;50.278;19.134;2023-02-01T14:00:35;6.10;92.00
69747;DHT22;57018;50.278;19.134;2023-02-01T14:03:17;6.20;92.70
69747;DHT22;57018;50.278;19.134;2023-02-01T14:06:34;5.80;93.00
69747;DHT22;57018;50.278;19.134;2023-02-01T14:09:19;5.70;94.00
69747;DHT22;57018;50.278;19.134;2023-02-01T14:15:27;5.20;95.80
69747;DHT22;57018;50.278;19.134;2023-02-01T14:17:57;4.80;96.50
69747;DHT22;57018;50.278;19.134;2023-02-01T14:20:41;4.90;97.30
69747;DHT22;57018;50.278;19.134;2023-02-01T14:23:16;4.50;98.30
69747;DHT22;57018;50.278;19.134;2023-02-01T14:25:57;4.40;99.30
69747;DHT22;57018;50.278;19.134;2023-02-01T14:28:30;4.40;99.90
69747;DHT22;57018;50.278;19.134;2023-02-01T14:31:00;4.10;99.90
69747;DHT22;57018;50.278;19.134;2023-02-01T14:33:44;4.10;99.90
69747;DHT22;57018;50.278;19.134;2023-02-01T14:36:16;4.00;99.90
69747;DHT22;57018;50.278;19.134;2023-02-01T14:38:51;4.00;99.90
69747;DHT22;57018;50.278;19.134;2023-02-01T14:41:30;3.90;99.90
69747;DHT22;57018;50.278;19.134;2023-02-01T14:44:24;4.10;99.90
69747;DHT22;57018;50.278;19.134;2023-02-01T14:49:59;4.10;99.90
69747;DHT22;57018;50.278;19.134;2023-02-01T14:52:34;3.90;99.90
69747;DHT22;57018;50.278;19.134;2023-02-01T14:55:12;3.70;99.90
69747;DHT22;57018;50.278;19.134;2023-02-01T14:57:45;4.00;99.90
69747;DHT22;57018;50.278;19.134;2023-02-01T15:00:28;4.00;99.90
69747;DHT22;57018;50.278;19.134;2023-02-01T15:03:15;3.80;99.90
69747;DHT22;57018;50.278;19.134;2023-02-01T15:05:50;3.70;99.90
69747;DHT22;57018;50.278;19.134;2023-02-01T15:08:27;3.70;99.90
69747;DHT22;57018;50.278;19.134;2023-02-01T15:11:00;3.60;99.90
69747;DHT22;57018;50.278;19.134;2023-02-01T15:13:30;3.80;99.90
69747;DHT22;57018;50.278;19.134;2023-02-01T15:16:11;3.60;99.90
69747;DHT22;57018;50.278;19.134;2023-02-01T15:18:42;3.70;99.90
69747;DHT22;57018;50.278;19.134;2023-02-01T15:21:19;3.60;99.90
69747;DHT22;57018;50.278;19.134;2023-02-01T15:23:49;3.70;99.90
69747;DHT22;57018;50.278;19.134;2023-02-01T15:26:30;3.60;99.90
69747;DHT22;57018;50.278;19.134;2023-02-01T15:29:00;3.70;99.90
69747;DHT22;57018;50.278;19.134;2023-02-01T15:31:36;3.60;99.90
69747;DHT22;57018;50.278;19.134;2023-02-01T15:34:06;3.80;99.90
69747;DHT22;57018;50.278;19.134;2023-02-01T15:36:36;3.70;99.90
69747;DHT22;57018;50.278;19.134;2023-02-01T15:39:20;3.70;99.90
69747;DHT22;57018;50.278;19.134;2023-02-01T15:41:55;3.90;99.90
69747;DHT22;57018;50.278;19.134;2023-02-01T15:44:40;3.50;99.90
69747;DHT22;57018;50.278;19.134;2023-02-01T15:47:18;3.50;99.90
69747;DHT22;57018;50.278;19.134;2023-02-01T15:49:53;3.50;99.90
69747;DHT22;57018;50.278;19.134;2023-02-01T15:52:26;3.40;99.90
69747;DHT22;57018;50.278;19.134;2023-02-01T15:54:59;3.40;99.90
69747;DHT22;57018;50.278;19.134;2023-02-01T15:57:32;3.50;99.90
69747;DHT22;57018;50.278;19.134;2023-02-01T16:00:07;3.60;99.90
69747;DHT22;57018;50.278;19.134;2023-02-01T16:02:41;3.70;99.90
69747;DHT22;57018;50.278;19.134;2023-02-01T16:05:30;3.60;99.90
69747;DHT22;57018;50.278;19.134;2023-02-01T16:08:04;3.90;99.90
69747;DHT22;57018;50.278;19.134;2023-02-01T16:10:40;3.70;99.90
69747;DHT22;57018;50.278;19.134;2023-02-01T16:13:11;3.90;99.90
69747;DHT22;57018;50.278;19.134;2023-02-01T16:15:41;3.90;99.90
69747;DHT22;57018;50.278;19.134;2023-02-01T16:18:13;3.80;99.90
69747;DHT22;57018;50.278;19.134;2023-02-01T16:20:44;4.00;99.90
69747;DHT22;57018;50.278;19.134;2023-02-01T16:23:14;3.80;99.90
69747;DHT22;57018;50.278;19.134;2023-02-01T16:25:46;3.70;99.90
69747;DHT22;57018;50.278;19.134;2023-02-01T16:28:16;3.80;99.90
69747;DHT22;57018;50.278;19.134;2023-02-01T16:30:46;3.60;99.90